Dalhart Municipal Airport
KDHT : now visible

Airfield :











YOU CAN JOIN US ON...

 
LOGIN :

Register | Disclaimer

   EN    FR    IT 

 









Legend :    VFR   Marginal VFR   IFR   Intensive IFR   Very Intensive IFR
Visi :
Ceiling :
>= 8 km
>= 3000ft
5 to 8 km
1000 to 3000 ft
1500m to 5 km
500 to 1000 ft
800 to 1500m
200 to 500 ft
< 800m
< 200 ft
Symbols :   Thunderstorms  Fog  Heavy snow  Heavy precipitations  Wind > 20 kt






- Airport Elevation : 3991 ft


KDHT - Dalhart Municipal

CURRENT METAR :
  • 170353Z AUTO 06008KT 10SM -RA OVC085 16/12 A2995 RMK AO2 LTG DSNT S AND SW RAB0256E06B42 TSE0259 SLP095 P0001 T01610117

EXPIRED METARs :
  • 170304Z AUTO 06015G22KT 10SM -RA FEW070 OVC095 16/11 A2992 RMK AO2 LTG DSNT NE-S RAB0256 TSE0259 PRESFR P0000 T01610106
  • 170253Z AUTO 06009KT 10SM TS OVC100 18/09 A2994 RMK AO2 PK WND 33033/0157 WSHFT 0140 LTG DSNT ALQDS RAE51 TSB0155E25B30 SLP094 P0041 60042 T01780089 50029
  • 170214Z AUTO 35017G23KT 3SM +TSRA SCT037 OVC070 16/09 A2996 RMK AO2 PK WND 33033/0157 WSHFT 0140 LTG DSNT ALQDS TSB0155 P0038 T01560094
  • 170159Z AUTO 33020G33KT 1 3/4SM +TSRA FEW029 BKN065 OVC120 14/10 A2995 RMK AO2 PK WND 33033/0157 WSHFT 0140 LTG DSNT ALQDS TSB55 P0020 T01440100
  • 170123Z AUTO 13014KT 10SM VCTS CLR 22/12 A2985 RMK AO2 LTG DSNT ALQDS T02170122

TAF KDHT
Valid from the 17 at 02:00 until the 18 at 00:00 UTC


170213Z 1702/1724 VRB20G30KT 2SM +TSRA BKN050CB OVC060
FM170400 01010KT P6SM OVC100
FM171800 10007KT P6SM OVC050
KZAB FIR / North America



MET'MAP, your aeronautical weather chart ! - Copyright ORBIFLY December 2007 - Disclaimer

ORBIFLY MET'MAP TEAM :

Programming & Development : Alexandra Zaïnal
Concept & original design : Baudouin d'Aumeries
Assistance for programming : Marc-Olivier Méhu
Technical & hardware support : Manuel Goepfert

Contact : metmap@orbifly.com




SOURCES & CREDITS :

   NOAA       Earth
Advisory